| time (UTC) | temp C | wind direction | speed KPH | gust KPH | rain 1hr cm | rain 24hr cm | rain mn cm | humidity % | barometer mb |
| 20260906141355 | 29 | 85 | 12.9 | 14.5 | 0.00 | 0.00 | 0.00 | 77 | 1013.4 |
| 20260906140850 | 29 | 78 | 9.7 | 16.1 | 0.00 | 0.00 | 0.00 | 76 | 1013.6 |
| 20260906140345 | 28 | 104 | 8.0 | 14.5 | 0.00 | 0.00 | 0.00 | 76 | 1013.7 |
| 20260906135842 | 28 | 92 | 8.0 | 16.1 | 0.00 | 0.00 | 0.00 | 77 | 1013.6 |
| 20260906135337 | 28 | 91 | 11.3 | 16.1 | 0.00 | 0.00 | 0.00 | 78 | 1013.6 |
| 20260906134833 | 28 | 83 | 9.7 | 14.5 | 0.00 | 0.00 | 0.00 | 78 | 1013.8 |
| 20260906134327 | 28 | 99 | 14.5 | 17.7 | 0.00 | 0.00 | 0.00 | 77 | 1013.7 |
| 20260906133823 | 28 | 73 | 8.0 | 14.5 | 0.00 | 0.00 | 0.00 | 77 | 1013.8 |
| 20260906133319 | 28 | 101 | 11.3 | 16.1 | 0.00 | 0.00 | 0.00 | 78 | 1013.7 |
| 20260906132814 | 28 | 30 | 9.7 | 12.9 | 0.00 | 0.00 | 0.00 | 78 | 1013.8 |
| 20260906132309 | 27 | 26 | 9.7 | 12.9 | 0.00 | 0.00 | 0.00 | 79 | 1013.9 |
| 20260906131804 | 27 | 70 | 11.3 | 14.5 | 0.00 | 0.00 | 0.00 | 79 | 1013.9 |
| 20260906131300 | 27 | 95 | 8.0 | 14.5 | 0.00 | 0.00 | 0.00 | 79 | 1013.9 |
| 20260906130755 | 27 | 42 | 4.8 | 12.9 | 0.00 | 0.00 | 0.00 | 80 | 1013.7 |
| 20260906130250 | 27 | 32 | 6.4 | 14.5 | 0.00 | 0.00 | 0.00 | 81 | 1013.5 |
| 20260906125749 | 27 | 27 | 8.0 | 14.5 | 0.00 | 0.00 | 0.00 | 81 | 1013.5 |
| 20260906125247 | 27 | 17 | 8.0 | 14.5 | 0.00 | 0.00 | 0.00 | 80 | 1013.4 |
| 20260906124741 | 27 | 4 | 4.8 | 8.0 | 0.00 | 0.00 | 0.00 | 81 | 1013.3 |
| 20260906124237 | 27 | 17 | 3.2 | 8.0 | 0.00 | 0.00 | 0.00 | 82 | 1013.4 |
| 20260906123736 | 26 | 311 | 3.2 | 4.8 | 0.00 | 0.00 | 0.00 | 83 | 1013.2 |
| 20260906123231 | 26 | 334 | 1.6 | 4.8 | 0.00 | 0.00 | 0.00 | 83 | 1013.0 |
| 20260906122731 | 26 | 345 | 4.8 | 6.4 | 0.00 | 0.00 | 0.00 | 83 | 1013.1 |
| 20260906122226 | 26 | 320 | 3.2 | 4.8 | 0.00 | 0.00 | 0.00 | 84 | 1013.0 |
| 20260906121723 | 26 | 286 | 3.2 | 4.8 | 0.00 | 0.00 | 0.00 | 85 | 1013.0 |
| 20260906121219 | 25 | 274 | 1.6 | 3.2 | 0.00 | 0.00 | 0.00 | 86 | 1013.1 |
| 20260906120714 | 25 | 260 | 3.2 | 3.2 | 0.00 | 0.00 | 0.00 | 86 | 1012.8 |
| 20260906120211 | 25 | 336 | 0.0 | 3.2 | 0.00 | 0.00 | 0.00 | 87 | 1012.7 |
| 20260906115707 | 25 | 324 | 3.2 | 4.8 | 0.00 | 0.00 | 0.00 | 88 | 1012.6 |
| 20260906115201 | 25 | 303 | 4.8 | 8.0 | 0.00 | 0.00 | 0.00 | 88 | 1012.6 |
| 20260906114700 | 25 | 303 | 0.0 | 4.8 | 0.00 | 0.00 | 0.00 | 88 | 1012.3 |
| 20260906114155 | 25 | 306 | 3.2 | 4.8 | 0.00 | 0.00 | 0.00 | 88 | 1012.5 |
| 20260906113650 | 25 | 357 | 3.2 | 4.8 | 0.00 | 0.00 | 0.00 | 88 | 1012.2 |
| 20260906113150 | 25 | 304 | 3.2 | 4.8 | 0.00 | 0.00 | 0.00 | 88 | 1012.2 |
| 20260906112649 | 25 | 309 | 0.0 | 3.2 | 0.00 | 0.00 | 0.00 | 88 | 1012.2 |
| 20260906112147 | 25 | 352 | 0.0 | 4.8 | 0.00 | 0.00 | 0.00 | 88 | 1012.1 |
| 20260906111645 | 25 | 334 | 3.2 | 4.8 | 0.00 | 0.00 | 0.00 | 87 | 1012.1 |
| 20260906111140 | 25 | 323 | 3.2 | 4.8 | 0.00 | 0.00 | 0.00 | 87 | 1012.1 |
| 20260906110635 | 25 | 301 | 1.6 | 3.2 | 0.00 | 0.00 | 0.00 | 87 | 1012.3 |
| 20260906110130 | 25 | 300 | 3.2 | 4.8 | 0.00 | 0.00 | 0.00 | 87 | 1012.2 |
| 20260906105624 | 25 | 295 | 3.2 | 3.2 | 0.00 | 0.00 | 0.00 | 88 | 1012.0 |
| 20260906105121 | 25 | 335 | 1.6 | 3.2 | 0.00 | 0.00 | 0.00 | 88 | 1012.0 |
| 20260906104620 | 25 | 284 | 0.0 | 1.6 | 0.00 | 0.00 | 0.00 | 88 | 1012.0 |
| 20260906104119 | 25 | 309 | 0.0 | 1.6 | 0.00 | 0.00 | 0.00 | 87 | 1012.0 |
| 20260906103618 | 25 | 310 | 0.0 | 3.2 | 0.00 | 0.00 | 0.00 | 87 | 1011.8 |
| 20260906103113 | 25 | 286 | 3.2 | 4.8 | 0.00 | 0.00 | 0.00 | 88 | 1011.9 |
| 20260906102608 | 25 | 326 | 0.0 | 1.6 | 0.00 | 0.00 | 0.00 | 87 | 1011.9 |
| 20260906102102 | 25 | 329 | 3.2 | 3.2 | 0.00 | 0.00 | 0.00 | 87 | 1012.2 |
| 20260906101557 | 25 | 58 | 1.6 | 3.2 | 0.00 | 0.00 | 0.00 | 87 | 1012.0 |
| 20260906101052 | 25 | 358 | 1.6 | 4.8 | 0.00 | 0.00 | 0.00 | 87 | 1011.9 |
| 20260906100547 | 25 | 322 | 0.0 | 1.6 | 0.00 | 0.00 | 0.00 | 85 | 1011.9 |
| 20260906100042 | 26 | 283 | 3.2 | 4.8 | 0.00 | 0.00 | 0.00 | 85 | 1012.0 |
| 20260906095536 | 26 | 293 | 3.2 | 4.8 | 0.00 | 0.00 | 0.00 | 85 | 1011.7 |
| 20260906095032 | 26 | 334 | 3.2 | 4.8 | 0.00 | 0.00 | 0.00 | 85 | 1011.9 |
| 20260906094531 | 26 | 319 | 3.2 | 4.8 | 0.00 | 0.00 | 0.00 | 84 | 1011.9 |
| 20260906094027 | 26 | 308 | 3.2 | 4.8 | 0.00 | 0.00 | 0.00 | 84 | 1011.9 |
| 20260906093523 | 26 | 323 | 4.8 | 4.8 | 0.00 | 0.00 | 0.00 | 84 | 1011.9 |
| 20260906093022 | 26 | 298 | 3.2 | 4.8 | 0.00 | 0.00 | 0.00 | 83 | 1011.9 |
| 20260906092517 | 26 | 280 | 3.2 | 4.8 | 0.00 | 0.00 | 0.00 | 83 | 1011.8 |
| 20260906092012 | 26 | 301 | 3.2 | 4.8 | 0.00 | 0.00 | 0.00 | 84 | 1011.8 |
| 20260906091508 | 26 | 329 | 3.2 | 4.8 | 0.00 | 0.00 | 0.00 | 83 | 1011.6 |
| 20260906091005 | 26 | 323 | 4.8 | 6.4 | 0.00 | 0.00 | 0.00 | 83 | 1011.8 |
| 20260906090504 | 26 | 306 | 3.2 | 4.8 | 0.00 | 0.00 | 0.00 | 83 | 1011.6 |
| 20260906085959 | 26 | 324 | 3.2 | 4.8 | 0.00 | 0.00 | 0.00 | 81 | 1011.7 |
| 20260906085458 | 26 | 302 | 3.2 | 3.2 | 0.00 | 0.00 | 0.00 | 81 | 1011.8 |
| 20260906084957 | 26 | 303 | 0.0 | 3.2 | 0.00 | 0.00 | 0.00 | 81 | 1011.6 |
| 20260906084452 | 26 | 9 | 0.0 | 3.2 | 0.00 | 0.00 | 0.00 | 81 | 1011.8 |
| 20260906083951 | 26 | 319 | 0.0 | 3.2 | 0.00 | 0.00 | 0.00 | 81 | 1011.7 |
| 20260906083447 | 26 | 345 | 3.2 | 3.2 | 0.00 | 0.00 | 0.00 | 81 | 1011.7 |
| 20260906082946 | 26 | 333 | 0.0 | 1.6 | 0.00 | 0.00 | 0.00 | 81 | 1011.7 |
| 20260906082442 | 26 | 353 | 0.0 | 3.2 | 0.00 | 0.00 | 0.00 | 81 | 1011.7 |
| 20260906081937 | 27 | 309 | 3.2 | 3.2 | 0.00 | 0.00 | 0.00 | 81 | 1011.7 |
| 20260906081432 | 27 | 346 | 0.0 | 3.2 | 0.00 | 0.00 | 0.00 | 80 | 1011.7 |
| 20260906080929 | 27 | 336 | 1.6 | 4.8 | 0.00 | 0.00 | 0.00 | 80 | 1011.5 |
| 20260906080426 | 27 | 293 | 3.2 | 3.2 | 0.00 | 0.00 | 0.00 | 80 | 1011.4 |
| 20260906075925 | 27 | 355 | 3.2 | 3.2 | 0.00 | 0.00 | 0.00 | 79 | 1011.5 |
| 20260906075420 | 27 | 344 | 3.2 | 3.2 | 0.00 | 0.00 | 0.00 | 79 | 1011.7 |
| 20260906074915 | 27 | 295 | 0.0 | 3.2 | 0.00 | 0.00 | 0.00 | 79 | 1011.6 |
| 20260906074409 | 27 | 358 | 3.2 | 4.8 | 0.00 | 0.00 | 0.00 | 79 | 1011.7 |
| 20260906073908 | 27 | 15 | 3.2 | 3.2 | 0.00 | 0.00 | 0.00 | 78 | 1011.6 |
| 20260906073403 | 27 | 4 | 1.6 | 3.2 | 0.00 | 0.00 | 0.00 | 78 | 1011.5 |
| 20260906072900 | 27 | 37 | 0.0 | 8.0 | 0.00 | 0.00 | 0.00 | 79 | 1011.7 |
| 20260906072354 | 27 | 35 | 6.4 | 6.4 | 0.00 | 0.00 | 0.00 | 79 | 1011.7 |
| 20260906071850 | 26 | 328 | 0.0 | 4.8 | 0.00 | 0.00 | 0.00 | 81 | 1011.6 |
| 20260906071346 | 26 | 269 | 0.0 | 3.2 | 0.00 | 0.00 | 0.00 | 82 | 1011.6 |
| 20260906070842 | 26 | 343 | 1.6 | 4.8 | 0.00 | 0.00 | 0.00 | 82 | 1011.7 |
| 20260906070338 | 27 | 25 | 3.2 | 4.8 | 0.00 | 0.00 | 0.00 | 81 | 1011.7 |
| 20260906065833 | 27 | 318 | 0.0 | 3.2 | 0.00 | 0.00 | 0.00 | 80 | 1011.5 |
| 20260906065327 | 27 | 325 | 1.6 | 4.8 | 0.00 | 0.00 | 0.00 | 80 | 1011.8 |
| 20260906064822 | 27 | 300 | 3.2 | 4.8 | 0.00 | 0.00 | 0.00 | 81 | 1011.7 |
| 20260906064319 | 27 | 321 | 3.2 | 4.8 | 0.00 | 0.00 | 0.00 | 81 | 1011.6 |
| 20260906063813 | 27 | 294 | 0.0 | 4.8 | 0.00 | 0.00 | 0.00 | 82 | 1011.9 |
| 20260906063309 | 27 | 304 | 0.0 | 4.8 | 0.00 | 0.00 | 0.00 | 81 | 1012.0 |
| 20260906062804 | 27 | 301 | 3.2 | 4.8 | 0.00 | 0.00 | 0.00 | 78 | 1011.9 |
| 20260906062306 | 27 | 313 | 3.2 | 4.8 | 0.00 | 0.00 | 0.00 | 79 | 1012.1 |
| 20260906061758 | 27 | 322 | 3.2 | 4.8 | 0.00 | 0.00 | 0.00 | 79 | 1011.9 |
| 20260906061255 | 27 | 328 | 3.2 | 4.8 | 0.00 | 0.00 | 0.00 | 79 | 1012.0 |
| 20260906060750 | 27 | 312 | 3.2 | 3.2 | 0.00 | 0.00 | 0.00 | 80 | 1012.0 |
| 20260906060247 | 27 | 303 | 3.2 | 4.8 | 0.00 | 0.00 | 0.00 | 80 | 1011.8 |
| 20260906055743 | 27 | 10 | 0.0 | 3.2 | 0.00 | 0.00 | 0.00 | 80 | 1012.0 |
| 20260906055238 | 27 | 321 | 3.2 | 4.8 | 0.00 | 0.00 | 0.00 | 79 | 1011.9 |
| 20260906054733 | 27 | 310 | 3.2 | 3.2 | 0.00 | 0.00 | 0.00 | 80 | 1012.0 |
| 20260906054228 | 27 | 295 | 1.6 | 3.2 | 0.00 | 0.00 | 0.00 | 80 | 1011.9 |
| 20260906053725 | 27 | 306 | 1.6 | 3.2 | 0.00 | 0.00 | 0.00 | 79 | 1011.9 |
| 20260906053220 | 28 | 299 | 3.2 | 3.2 | 0.00 | 0.00 | 0.00 | 78 | 1011.9 |
| 20260906052715 | 27 | 320 | 1.6 | 3.2 | 0.00 | 0.00 | 0.00 | 78 | 1011.8 |
| 20260906052211 | 27 | 301 | 1.6 | 3.2 | 0.00 | 0.00 | 0.00 | 80 | 1012.0 |
| 20260906051708 | 27 | 221 | 1.6 | 3.2 | 0.00 | 0.00 | 0.00 | 81 | 1011.6 |
| 20260906051207 | 27 | 212 | 0.0 | 1.6 | 0.00 | 0.00 | 0.00 | 80 | 1011.8 |
| 20260906050703 | 27 | 295 | 1.6 | 3.2 | 0.00 | 0.00 | 0.00 | 79 | 1012.0 |
| 20260906050158 | 27 | 269 | 0.0 | 1.6 | 0.00 | 0.00 | 0.00 | 79 | 1011.7 |
| 20260906045656 | 28 | 283 | 1.6 | 3.2 | 0.00 | 0.00 | 0.00 | 78 | 1011.8 |
| 20260906045151 | 28 | 290 | 3.2 | 4.8 | 0.00 | 0.00 | 0.00 | 78 | 1011.9 |
| 20260906044648 | 27 | 319 | 3.2 | 4.8 | 0.00 | 0.00 | 0.00 | 79 | 1011.6 |
| 20260906044143 | 28 | 316 | 3.2 | 4.8 | 0.00 | 0.00 | 0.00 | 79 | 1011.8 |
| 20260906043639 | 27 | 329 | 3.2 | 4.8 | 0.00 | 0.00 | 0.00 | 80 | 1011.8 |
| 20260906043134 | 27 | 296 | 1.6 | 3.2 | 0.00 | 0.00 | 0.00 | 81 | 1011.8 |
| 20260906042634 | 27 | 292 | 3.2 | 4.8 | 0.00 | 0.00 | 0.00 | 82 | 1011.8 |
| 20260906042128 | 27 | 304 | 3.2 | 8.0 | 0.00 | 0.00 | 0.00 | 82 | 1011.7 |
| 20260906041623 | 27 | 291 | 3.2 | 9.7 | 0.00 | 0.00 | 0.00 | 81 | 1011.6 |
| 20260906041118 | 28 | 299 | 3.2 | 3.2 | 0.00 | 0.00 | 0.00 | 81 | 1011.5 |
| 20260906040614 | 28 | 294 | 3.2 | 4.8 | 0.00 | 0.00 | 0.00 | 79 | 1011.4 |
| 20260906040109 | 28 | 314 | 1.6 | 4.8 | 0.00 | 0.00 | 0.00 | 79 | 1011.7 |
| 20260906035604 | 28 | 304 | 3.2 | 4.8 | 0.00 | 0.00 | 0.00 | 77 | 1011.6 |
| 20260906035100 | 28 | 316 | 3.2 | 4.8 | 0.00 | 0.00 | 0.00 | 74 | 1011.7 |
| 20260906034600 | 29 | 299 | 3.2 | 3.2 | 0.00 | 0.00 | 0.00 | 73 | 1011.5 |
| 20260906034055 | 30 | 293 | 3.2 | 3.2 | 0.00 | 0.00 | 0.00 | 72 | 1011.6 |
| 20260906033550 | 30 | 289 | 3.2 | 4.8 | 0.00 | 0.00 | 0.00 | 71 | 1011.6 |
| 20260906033045 | 30 | 294 | 3.2 | 3.2 | 0.00 | 0.00 | 0.00 | 71 | 1011.6 |
| 20260906032542 | 30 | 291 | 3.2 | 4.8 | 0.00 | 0.00 | 0.00 | 72 | 1011.7 |
| 20260906032036 | 30 | 284 | 3.2 | 4.8 | 0.00 | 0.00 | 0.00 | 71 | 1011.7 |
| 20260906031532 | 30 | 273 | 3.2 | 4.8 | 0.00 | 0.00 | 0.00 | 70 | 1011.8 |
| 20260906031028 | 30 | 297 | 3.2 | 4.8 | 0.00 | 0.00 | 0.00 | 71 | 1011.8 |
| 20260906030527 | 30 | 279 | 3.2 | 3.2 | 0.00 | 0.00 | 0.00 | 72 | 1011.7 |
| 20260906030027 | 30 | 277 | 1.6 | 3.2 | 0.00 | 0.00 | 0.00 | 72 | 1011.6 |
| 20260906025526 | 30 | 274 | 1.6 | 3.2 | 0.00 | 0.00 | 0.00 | 72 | 1011.5 |
| 20260906025024 | 30 | 271 | 1.6 | 3.2 | 0.00 | 0.00 | 0.00 | 71 | 1011.5 |
| 20260906024519 | 30 | 276 | 3.2 | 3.2 | 0.00 | 0.00 | 0.00 | 70 | 1011.6 |
| 20260906024014 | 30 | 292 | 1.6 | 3.2 | 0.00 | 0.00 | 0.00 | 70 | 1011.6 |
| 20260906023510 | 30 | 291 | 3.2 | 3.2 | 0.00 | 0.00 | 0.00 | 69 | 1011.5 |
| 20260906023005 | 30 | 276 | 3.2 | 3.2 | 0.00 | 0.00 | 0.00 | 68 | 1011.5 |
| 20260906022500 | 31 | 267 | 3.2 | 4.8 | 0.00 | 0.00 | 0.00 | 68 | 1011.5 |
| 20260906021955 | 31 | 274 | 3.2 | 4.8 | 0.00 | 0.00 | 0.00 | 68 | 1011.3 |
| 20260906021450 | 30 | 281 | 3.2 | 3.2 | 0.00 | 0.00 | 0.00 | 67 | 1011.2 |
| 20260906020945 | 30 | 288 | 1.6 | 3.2 | 0.00 | 0.00 | 0.00 | 67 | 1011.1 |
| 20260906020439 | 31 | 305 | 1.6 | 3.2 | 0.00 | 0.00 | 0.00 | 68 | 1011.0 |
| 20260906015938 | 31 | 269 | 3.2 | 3.2 | 0.00 | 0.00 | 0.00 | 67 | 1011.1 |
| 20260906015433 | 30 | 269 | 3.2 | 3.2 | 0.00 | 0.00 | 0.00 | 66 | 1010.9 |
| 20260906014933 | 30 | 287 | 1.6 | 3.2 | 0.00 | 0.00 | 0.00 | 67 | 1010.5 |
| 20260906014432 | 31 | 269 | 1.6 | 3.2 | 0.00 | 0.00 | 0.00 | 66 | 1010.8 |
| 20260906013929 | 31 | 284 | 0.0 | 3.2 | 0.00 | 0.00 | 0.00 | 65 | 1010.7 |
| 20260906013424 | 31 | 302 | 1.6 | 3.2 | 0.00 | 0.00 | 0.00 | 64 | 1010.6 |
| 20260906012920 | 31 | 302 | 3.2 | 4.8 | 0.00 | 0.00 | 0.00 | 63 | 1010.9 |
| 20260906012419 | 31 | 300 | 1.6 | 3.2 | 0.00 | 0.00 | 0.00 | 63 | 1010.6 |
| 20260906011918 | 31 | 235 | 0.0 | 1.6 | 0.00 | 0.00 | 0.00 | 62 | 1010.5 |
| 20260906011414 | 31 | 212 | 1.6 | 3.2 | 0.00 | 0.00 | 0.00 | 61 | 1010.4 |
| 20260906010909 | 31 | 269 | 0.0 | 3.2 | 0.00 | 0.00 | 0.00 | 61 | 1010.3 |
| 20260906010405 | 32 | 55 | 0.0 | 1.6 | 0.00 | 0.00 | 0.00 | 62 | 1010.4 |
| 20260906005901 | 32 | 297 | 0.0 | 0.0 | 0.00 | 0.00 | 0.00 | 61 | 1010.4 |
| 20260906005400 | 32 | 297 | 0.0 | 0.0 | 0.00 | 0.00 | 0.00 | 60 | 1010.2 |
| 20260906004859 | 32 | 297 | 0.0 | 0.0 | 0.00 | 0.00 | 0.00 | 59 | 1010.6 |
| 20260906004353 | 32 | 304 | 0.0 | 1.6 | 0.00 | 0.00 | 0.00 | 59 | 1010.4 |
| 20260906003848 | 32 | 316 | 1.6 | 3.2 | 0.00 | 0.00 | 0.00 | 59 | 1010.3 |
| 20260906003344 | 32 | 281 | 1.6 | 3.2 | 0.00 | 0.00 | 0.00 | 58 | 1010.3 |
| 20260906002839 | 33 | 269 | 0.0 | 1.6 | 0.00 | 0.00 | 0.00 | 58 | 1010.4 |
| 20260906002338 | 33 | 272 | 1.6 | 3.2 | 0.00 | 0.00 | 0.00 | 57 | 1010.4 |
| 20260906001834 | 33 | 269 | 0.0 | 1.6 | 0.00 | 0.00 | 0.00 | 56 | 1010.4 |
| 20260906001329 | 34 | 278 | 1.6 | 3.2 | 0.00 | 0.00 | 0.00 | 56 | 1010.5 |
| 20260906000825 | 34 | 269 | 1.6 | 3.2 | 0.00 | 0.00 | 0.00 | 55 | 1010.3 |
| 20260906000319 | 35 | 203 | 0.0 | 4.8 | 0.00 | 0.00 | 0.00 | 54 | 1010.7 |
| 20260905235820 | 35 | 198 | 3.2 | 4.8 | 0.00 | 0.00 | 0.00 | 54 | 1010.4 |
| 20260905235314 | 35 | 194 | 3.2 | 4.8 | 0.00 | 0.00 | 0.00 | 53 | 1010.6 |
| 20260905234809 | 35 | 192 | 3.2 | 4.8 | 0.00 | 0.00 | 0.00 | 50 | 1010.5 |
| 20260905234305 | 35 | 182 | 1.6 | 4.8 | 0.00 | 0.00 | 0.00 | 52 | 1010.6 |
| 20260905233759 | 35 | 216 | 1.6 | 4.8 | 0.00 | 0.00 | 0.00 | 51 | 1010.6 |
| 20260905233254 | 35 | 189 | 3.2 | 4.8 | 0.00 | 0.00 | 0.00 | 51 | 1010.5 |
| 20260905232753 | 35 | 203 | 1.6 | 4.8 | 0.00 | 0.00 | 0.00 | 50 | 1010.7 |
| 20260905232249 | 35 | 187 | 3.2 | 3.2 | 0.00 | 0.00 | 0.00 | 51 | 1010.9 |
| 20260905231745 | 35 | 148 | 4.8 | 8.0 | 0.00 | 0.00 | 0.00 | 50 | 1010.7 |
| 20260905231240 | 36 | 176 | 4.8 | 6.4 | 0.00 | 0.00 | 0.00 | 50 | 1010.7 |
| 20260905230736 | 36 | 168 | 3.2 | 6.4 | 0.00 | 0.00 | 0.00 | 48 | 1010.6 |
| 20260905230233 | 36 | 216 | 3.2 | 6.4 | 0.00 | 0.00 | 0.00 | 47 | 1010.5 |
| 20260905225728 | 36 | 197 | 3.2 | 6.4 | 0.00 | 0.00 | 0.00 | 47 | 1010.6 |
| 20260905225223 | 36 | 176 | 4.8 | 9.7 | 0.00 | 0.00 | 0.00 | 47 | 1010.4 |
| 20260905224722 | 36 | 185 | 4.8 | 8.0 | 0.00 | 0.00 | 0.00 | 47 | 1010.8 |
| 20260905224218 | 36 | 172 | 3.2 | 6.4 | 0.00 | 0.00 | 0.00 | 45 | 1010.5 |
| 20260905223714 | 36 | 173 | 8.0 | 9.7 | 0.00 | 0.00 | 0.00 | 43 | 1010.6 |
| 20260905223210 | 36 | 145 | 6.4 | 11.3 | 0.00 | 0.00 | 0.00 | 44 | 1010.5 |
| 20260905222706 | 37 | 160 | 4.8 | 8.0 | 0.00 | 0.00 | 0.00 | 43 | 1010.6 |
| 20260905222205 | 37 | 169 | 6.4 | 9.7 | 0.00 | 0.00 | 0.00 | 44 | 1010.3 |
| 20260905221701 | 37 | 156 | 6.4 | 11.3 | 0.00 | 0.00 | 0.00 | 43 | 1010.7 |
| 20260905221158 | 37 | 167 | 9.7 | 11.3 | 0.00 | 0.00 | 0.00 | 42 | 1010.6 |
| 20260905220653 | 37 | 164 | 9.7 | 14.5 | 0.00 | 0.00 | 0.00 | 43 | 1010.5 |
| 20260905220149 | 37 | 160 | 8.0 | 9.7 | 0.00 | 0.00 | 0.00 | 45 | 1010.7 |
| 20260905215649 | 37 | 172 | 4.8 | 11.3 | 0.00 | 0.00 | 0.00 | 42 | 1010.7 |
| 20260905215144 | 37 | 166 | 8.0 | 9.7 | 0.00 | 0.00 | 0.00 | 42 | 1010.6 |
| 20260905214640 | 37 | 141 | 4.8 | 9.7 | 0.00 | 0.00 | 0.00 | 41 | 1010.7 |
| 20260905214135 | 37 | 176 | 6.4 | 16.1 | 0.00 | 0.00 | 0.00 | 42 | 1010.8 |
| 20260905213630 | 37 | 176 | 4.8 | 11.3 | 0.00 | 0.00 | 0.00 | 41 | 1010.6 |
| 20260905213126 | 37 | 176 | 6.4 | 11.3 | 0.00 | 0.00 | 0.00 | 43 | 1010.8 |
| 20260905212621 | 38 | 175 | 8.0 | 9.7 | 0.00 | 0.00 | 0.00 | 44 | 1010.9 |
| 20260905212121 | 37 | 262 | 6.4 | 8.0 | 0.00 | 0.00 | 0.00 | 42 | 1010.6 |
| 20260905211615 | 37 | 198 | 4.8 | 11.3 | 0.00 | 0.00 | 0.00 | 42 | 1010.8 |
| 20260905211111 | 37 | 193 | 6.4 | 9.7 | 0.00 | 0.00 | 0.00 | 43 | 1010.7 |
| 20260905210607 | 37 | 191 | 6.4 | 9.7 | 0.00 | 0.00 | 0.00 | 42 | 1010.8 |
| 20260905205601 | 38 | 211 | 4.8 | 8.0 | 0.00 | 0.00 | 0.00 | 41 | 1010.8 |
| 20260905205101 | 38 | 213 | 3.2 | 9.7 | 0.00 | 0.00 | 0.00 | 41 | 1010.9 |
| 20260905204555 | 38 | 221 | 6.4 | 9.7 | 0.00 | 0.00 | 0.00 | 41 | 1011.1 |
| 20260905204050 | 37 | 170 | 6.4 | 12.9 | 0.00 | 0.00 | 0.00 | 43 | 1011.2 |
| 20260905203550 | 38 | 170 | 11.3 | 11.3 | 0.00 | 0.00 | 0.00 | 42 | 1011.2 |
| 20260905203046 | 37 | 176 | 3.2 | 12.9 | 0.00 | 0.00 | 0.00 | 42 | 1011.3 |
| 20260905202541 | 37 | 178 | 6.4 | 12.9 | 0.00 | 0.00 | 0.00 | 42 | 1011.4 |
| 20260905202036 | 37 | 201 | 4.8 | 11.3 | 0.00 | 0.00 | 0.00 | 42 | 1011.7 |
| 20260905201532 | 37 | 182 | 6.4 | 14.5 | 0.00 | 0.00 | 0.00 | 42 | 1011.5 |
| 20260905201031 | 37 | 293 | 3.2 | 11.3 | 0.00 | 0.00 | 0.00 | 41 | 1011.6 |
| 20260905200527 | 37 | 307 | 8.0 | 14.5 | 0.00 | 0.00 | 0.00 | 42 | 1011.6 |
| 20260905200026 | 37 | 37 | 4.8 | 11.3 | 0.00 | 0.00 | 0.00 | 41 | 1011.6 |
| 20260905195520 | 37 | 98 | 6.4 | 11.3 | 0.00 | 0.00 | 0.00 | 41 | 1011.9 |
| 20260905195016 | 37 | 186 | 4.8 | 8.0 | 0.00 | 0.00 | 0.00 | 42 | 1011.9 |
| 20260905194510 | 37 | 36 | 3.2 | 12.9 | 0.00 | 0.00 | 0.00 | 42 | 1012.1 |
| 20260905194010 | 37 | 80 | 3.2 | 12.9 | 0.00 | 0.00 | 0.00 | 42 | 1012.2 |
| 20260905193504 | 37 | 0 | 0.0 | 12.9 | 0.00 | 0.00 | 0.00 | 43 | 1012.2 |
| 20260905192959 | 37 | 324 | 6.4 | 11.3 | 0.00 | 0.00 | 0.00 | 42 | 1012.5 |
| 20260905192454 | 37 | 6 | 6.4 | 11.3 | 0.00 | 0.00 | 0.00 | 43 | 1012.5 |
| 20260905191950 | 37 | 272 | 4.8 | 11.3 | 0.00 | 0.00 | 0.00 | 43 | 1012.4 |
| 20260905191444 | 38 | 274 | 8.0 | 9.7 | 0.00 | 0.00 | 0.00 | 43 | 1012.7 |
| 20260905190943 | 37 | 78 | 3.2 | 8.0 | 0.00 | 0.00 | 0.00 | 43 | 1012.7 |
| 20260905190441 | 37 | 198 | 0.0 | 4.8 | 0.00 | 0.00 | 0.00 | 45 | 1012.9 |
| 20260905185940 | 36 | 50 | 0.0 | 6.4 | 0.00 | 0.00 | 0.00 | 47 | 1012.8 |
| 20260905185436 | 36 | 322 | 1.6 | 8.0 | 0.00 | 0.00 | 0.00 | 46 | 1013.1 |
| 20260905184934 | 36 | 328 | 3.2 | 4.8 | 0.00 | 0.00 | 0.00 | 46 | 1013.1 |
| 20260905184429 | 36 | 28 | 4.8 | 9.7 | 0.00 | 0.00 | 0.00 | 47 | 1012.9 |
| 20260905183928 | 36 | 316 | 3.2 | 11.3 | 0.00 | 0.00 | 0.00 | 47 | 1012.8 |
| 20260905183422 | 37 | 7 | 3.2 | 6.4 | 0.00 | 0.00 | 0.00 | 46 | 1013.0 |
| 20260905182918 | 37 | 315 | 8.0 | 11.3 | 0.00 | 0.00 | 0.00 | 44 | 1013.1 |
| 20260905182416 | 38 | 288 | 6.4 | 9.7 | 0.00 | 0.00 | 0.00 | 43 | 1012.8 |
| 20260905181913 | 38 | 333 | 4.8 | 8.0 | 0.00 | 0.00 | 0.00 | 42 | 1013.0 |
| 20260905181413 | 37 | 193 | 4.8 | 8.0 | 0.00 | 0.00 | 0.00 | 44 | 1013.1 |
| 20260905180912 | 36 | 269 | 1.6 | 4.8 | 0.00 | 0.00 | 0.00 | 45 | 1013.2 |
| 20260905180406 | 35 | 340 | 3.2 | 8.0 | 0.00 | 0.00 | 0.00 | 46 | 1013.1 |
| 20260905175901 | 35 | 321 | 3.2 | 8.0 | 0.00 | 0.00 | 0.00 | 46 | 1013.1 |
| 20260905175401 | 36 | 312 | 6.4 | 9.7 | 0.00 | 0.00 | 0.00 | 46 | 1013.2 |
| 20260905174855 | 37 | 74 | 12.9 | 12.9 | 0.00 | 0.00 | 0.00 | 46 | 1013.1 |
| 20260905174352 | 37 | 273 | 3.2 | 8.0 | 0.00 | 0.00 | 0.00 | 44 | 1013.1 |
| 20260905173847 | 37 | 286 | 3.2 | 11.3 | 0.00 | 0.00 | 0.00 | 44 | 1013.3 |
| 20260905173343 | 37 | 278 | 9.7 | 14.5 | 0.00 | 0.00 | 0.00 | 44 | 1013.3 |
| 20260905172838 | 36 | 52 | 6.4 | 12.9 | 0.00 | 0.00 | 0.00 | 45 | 1013.1 |
| 20260905172336 | 36 | 6 | 6.4 | 12.9 | 0.00 | 0.00 | 0.00 | 47 | 1013.4 |
| 20260905171832 | 37 | 306 | 8.0 | 12.9 | 0.00 | 0.00 | 0.00 | 46 | 1013.4 |
| 20260905171329 | 36 | 293 | 8.0 | 16.1 | 0.00 | 0.00 | 0.00 | 45 | 1013.5 |
| 20260905170825 | 36 | 297 | 6.4 | 11.3 | 0.00 | 0.00 | 0.00 | 45 | 1013.8 |
| 20260905170320 | 36 | 298 | 8.0 | 14.5 | 0.00 | 0.00 | 0.00 | 45 | 1013.8 |
| 20260905165820 | 37 | 267 | 9.7 | 9.7 | 0.00 | 0.00 | 0.00 | 45 | 1013.9 |
| 20260905165315 | 36 | 290 | 11.3 | 12.9 | 0.00 | 0.00 | 0.00 | 47 | 1013.7 |
| 20260905164815 | 36 | 306 | 4.8 | 9.7 | 0.00 | 0.00 | 0.00 | 49 | 1014.0 |
| 20260905164310 | 36 | 279 | 4.8 | 11.3 | 0.00 | 0.00 | 0.00 | 50 | 1013.7 |
| 20260905163805 | 35 | 280 | 4.8 | 9.7 | 0.00 | 0.00 | 0.00 | 50 | 1014.2 |
| 20260905163302 | 36 | 352 | 4.8 | 11.3 | 0.00 | 0.00 | 0.00 | 50 | 1014.1 |
| 20260905162757 | 36 | 26 | 6.4 | 9.7 | 0.00 | 0.00 | 0.00 | 49 | 1014.0 |
| 20260905162257 | 35 | 352 | 8.0 | 20.9 | 0.00 | 0.00 | 0.00 | 50 | 1014.1 |
| 20260905161752 | 35 | 351 | 6.4 | 12.9 | 0.00 | 0.00 | 0.00 | 52 | 1014.3 |
| 20260905161250 | 36 | 318 | 4.8 | 9.7 | 0.00 | 0.00 | 0.00 | 50 | 1014.2 |
| 20260905160749 | 35 | 268 | 3.2 | 8.0 | 0.00 | 0.00 | 0.00 | 52 | 1014.1 |
| 20260905160243 | 35 | 314 | 4.8 | 11.3 | 0.00 | 0.00 | 0.00 | 53 | 1014.1 |
| 20260905155738 | 35 | 323 | 6.4 | 9.7 | 0.00 | 0.00 | 0.00 | 51 | 1014.3 |
| 20260905155237 | 35 | 6 | 4.8 | 11.3 | 0.00 | 0.00 | 0.00 | 53 | 1014.2 |
| 20260905154731 | 35 | 7 | 6.4 | 12.9 | 0.00 | 0.00 | 0.00 | 54 | 1014.1 |
| 20260905154227 | 34 | 18 | 6.4 | 11.3 | 0.00 | 0.00 | 0.00 | 56 | 1014.4 |
| 20260905153723 | 34 | 29 | 9.7 | 14.5 | 0.00 | 0.00 | 0.00 | 56 | 1014.5 |
| 20260905153219 | 34 | 59 | 3.2 | 9.7 | 0.00 | 0.00 | 0.00 | 58 | 1014.5 |
| 20260905152713 | 34 | 359 | 8.0 | 14.5 | 0.00 | 0.00 | 0.00 | 58 | 1014.4 |
| 20260905152207 | 33 | 358 | 3.2 | 12.9 | 0.00 | 0.00 | 0.00 | 60 | 1014.3 |
| 20260905151707 | 33 | 8 | 3.2 | 9.7 | 0.00 | 0.00 | 0.00 | 61 | 1014.3 |
| 20260905151203 | 33 | 0 | 3.2 | 12.9 | 0.00 | 0.00 | 0.00 | 60 | 1014.3 |
| 20260905150658 | 33 | 13 | 8.0 | 9.7 | 0.00 | 0.00 | 0.00 | 61 | 1014.4 |
| 20260905150157 | 33 | 45 | 4.8 | 11.3 | 0.00 | 0.00 | 0.00 | 62 | 1014.5 |
| 20260905145655 | 33 | 50 | 4.8 | 11.3 | 0.00 | 0.00 | 0.00 | 62 | 1014.2 |
| 20260905145149 | 32 | 309 | 6.4 | 9.7 | 0.00 | 0.00 | 0.00 | 64 | 1014.4 |
| 20260905144643 | 33 | 355 | 4.8 | 8.0 | 0.00 | 0.00 | 0.00 | 64 | 1014.2 |
| 20260905144143 | 33 | 344 | 1.6 | 8.0 | 0.00 | 0.00 | 0.00 | 66 | 1014.4 |
| 20260905143637 | 32 | 15 | 4.8 | 11.3 | 0.00 | 0.00 | 0.00 | 67 | 1014.3 |
| 20260905143132 | 32 | 24 | 6.4 | 8.0 | 0.00 | 0.00 | 0.00 | 66 | 1014.5 |
| 20260905142630 | 32 | 20 | 3.2 | 9.7 | 0.00 | 0.00 | 0.00 | 67 | 1014.1 |
| 20260905142125 | 31 | 33 | 8.0 | 11.3 | 0.00 | 0.00 | 0.00 | 67 | 1014.3 |
| 20260905141625 | 31 | 30 | 8.0 | 9.7 | 0.00 | 0.00 | 0.00 | 66 | 1014.3 |